Time;durP1;ratioP1;P1;durP2;ratioP2;P2;SDS_P1;SDS_P2;PMS_P1;PMS_P2;Temp;Humidity;BMP_temperature;BMP_pressure;BME280_temperature;BME280_humidity;BME280_pressure;Samples;Min_cycle;Max_cycle;Signal;HPM_P1;HPM_P2
2023/10/15 00:00:55;;;;;;;3.63;2.20;;;8.40;99.90;;;;;;469942;253;28418;-71
2023/10/15 00:02:56;;;;;;;5.33;2.10;;;8.40;99.90;;;;;;469909;253;28452;-70
2023/10/15 00:05:01;;;;;;;2.23;1.80;;;8.40;99.90;;;;;;469936;253;28000;-71
2023/10/15 00:06:59;;;;;;;5.80;2.60;;;8.40;99.90;;;;;;469915;253;28026;-71
2023/10/15 00:09:00;;;;;;;4.67;2.40;;;8.50;99.90;;;;;;469919;253;27901;-70
2023/10/15 00:11:01;;;;;;;6.97;2.00;;;8.50;99.90;;;;;;469915;253;27929;-71
2023/10/15 00:13:04;;;;;;;5.10;2.00;;;8.50;99.90;;;;;;469953;253;27907;-71
2023/10/15 00:15:04;;;;;;;5.17;2.50;;;8.40;99.90;;;;;;469926;253;27927;-71
2023/10/15 00:17:05;;;;;;;7.37;2.80;;;8.40;99.90;;;;;;469934;253;27993;-71
2023/10/15 00:19:12;;;;;;;3.00;1.90;;;8.30;99.90;;;;;;469935;253;27540;-71
2023/10/15 00:21:14;;;;;;;5.10;2.00;;;8.40;99.90;;;;;;469950;253;27955;-71
2023/10/15 00:23:15;;;;;;;5.27;2.07;;;8.40;99.90;;;;;;469922;253;27769;-71
2023/10/15 00:25:18;;;;;;;3.57;2.37;;;8.40;99.90;;;;;;469939;253;28324;-72
2023/10/15 00:27:17;;;;;;;4.30;2.03;;;8.40;99.90;;;;;;469926;252;28406;-72
2023/10/15 00:29:18;;;;;;;4.10;2.60;;;8.40;99.90;;;;;;469933;253;27998;-70
2023/10/15 00:31:20;;;;;;;3.30;1.73;;;8.40;99.90;;;;;;469929;253;28513;-71
2023/10/15 00:33:21;;;;;;;2.40;1.87;;;8.40;99.90;;;;;;469934;253;28562;-72
2023/10/15 00:35:25;;;;;;;4.77;2.27;;;8.40;99.90;;;;;;469928;253;28070;-70
2023/10/15 00:37:24;;;;;;;2.80;1.80;;;8.40;99.90;;;;;;469903;247;27951;-72
2023/10/15 00:39:25;;;;;;;2.27;2.07;;;8.30;99.90;;;;;;469954;253;27984;-72
2023/10/15 00:41:27;;;;;;;3.40;1.90;;;8.30;99.90;;;;;;469935;253;28067;-70
2023/10/15 00:43:27;;;;;;;4.33;2.57;;;8.30;99.90;;;;;;469935;253;27932;-72
2023/10/15 00:45:34;;;;;;;6.80;2.70;;;8.30;99.90;;;;;;469938;253;27558;-70
2023/10/15 00:47:34;;;;;;;4.83;1.70;;;8.20;99.90;;;;;;469887;253;27792;-71
2023/10/15 00:49:31;;;;;;;3.80;1.77;;;8.30;99.90;;;;;;469898;253;27900;-71
2023/10/15 00:51:32;;;;;;;4.73;2.10;;;8.30;99.90;;;;;;469930;253;27817;-70
2023/10/15 00:53:33;;;;;;;3.10;1.97;;;8.40;99.90;;;;;;469954;252;27565;-73
2023/10/15 00:55:37;;;;;;;2.07;1.87;;;8.40;99.90;;;;;;469930;253;27992;-71
2023/10/15 00:57:42;;;;;;;2.97;1.70;;;8.40;99.90;;;;;;469913;253;28006;-70
2023/10/15 00:59:48;;;;;;;4.40;2.60;;;8.50;99.90;;;;;;469950;253;27512;-70
2023/10/15 01:03:57;;;;;;;4.73;1.90;;;8.50;99.90;;;;;;469929;253;28321;-72
2023/10/15 01:05:59;;;;;;;6.83;2.57;;;8.50;99.90;;;;;;469928;253;27988;-70
2023/10/15 01:08:03;;;;;;;4.77;2.37;;;8.50;99.90;;;;;;469928;253;27710;-71
2023/10/15 01:10:01;;;;;;;2.93;1.70;;;8.50;99.90;;;;;;469887;253;28002;-71
2023/10/15 01:12:36;;;;;;;4.80;2.13;;;8.50;99.90;;;;;;469871;253;28239;-71
2023/10/15 01:14:10;;;;;;;3.83;2.23;;;8.50;99.90;;;;;;468193;253;27924;-71
2023/10/15 01:16:13;;;;;;;4.50;2.10;;;8.50;99.90;;;;;;469933;252;28024;-71
2023/10/15 01:18:12;;;;;;;3.13;2.00;;;8.50;99.90;;;;;;469876;253;28156;-70
2023/10/15 01:20:18;;;;;;;6.90;2.40;;;8.50;99.90;;;;;;469932;253;27800;-72
2023/10/15 01:22:18;;;;;;;3.33;2.13;;;8.60;99.90;;;;;;469884;253;27946;-70
2023/10/15 01:24:22;;;;;;;6.07;2.03;;;8.50;99.90;;;;;;469893;253;27947;-70
2023/10/15 01:26:23;;;;;;;4.40;2.20;;;8.50;99.90;;;;;;469909;253;28535;-70
2023/10/15 01:28:35;;;;;;;3.63;2.20;;;8.50;99.90;;;;;;469924;253;28495;-71
2023/10/15 01:30:26;;;;;;;6.23;2.23;;;8.50;99.90;;;;;;469867;253;28167;-71
2023/10/15 01:32:30;;;;;;;3.57;2.10;;;8.50;99.90;;;;;;469946;253;28548;-71
2023/10/15 01:34:30;;;;;;;4.53;2.40;;;8.50;99.90;;;;;;469908;253;28391;-71
2023/10/15 01:36:30;;;;;;;4.20;2.30;;;8.50;99.90;;;;;;469876;253;28658;-72
2023/10/15 01:38:31;;;;;;;4.27;1.67;;;8.40;99.90;;;;;;469901;253;27991;-71
2023/10/15 01:40:44;;;;;;;6.33;2.10;;;8.50;99.90;;;;;;469877;253;28045;-71
2023/10/15 01:42:43;;;;;;;5.30;2.30;;;8.40;99.90;;;;;;469623;253;27886;-70
2023/10/15 01:44:47;;;;;;;6.63;2.20;;;8.50;99.90;;;;;;469894;253;27908;-71
2023/10/15 01:46:48;;;;;;;2.43;1.80;;;8.50;99.90;;;;;;469865;253;27969;-72
2023/10/15 01:48:46;;;;;;;5.93;2.03;;;8.50;99.90;;;;;;469729;253;28065;-72
2023/10/15 01:50:49;;;;;;;7.07;2.10;;;8.50;99.90;;;;;;469870;253;28304;-71
2023/10/15 01:52:48;;;;;;;5.07;2.13;;;8.50;99.90;;;;;;469852;253;28414;-70
2023/10/15 01:54:50;;;;;;;7.70;2.40;;;8.40;99.90;;;;;;469883;253;28345;-70
2023/10/15 01:56:55;;;;;;;3.53;2.00;;;8.30;99.90;;;;;;469934;253;28529;-71
2023/10/15 01:58:52;;;;;;;4.10;1.97;;;8.10;99.90;;;;;;469930;253;28484;-73
2023/10/15 02:00:54;;;;;;;4.83;2.07;;;8.10;99.90;;;;;;469945;253;28492;-71
2023/10/15 02:02:56;;;;;;;5.50;2.20;;;8.10;99.90;;;;;;469823;252;27790;-70
2023/10/15 02:04:57;;;;;;;3.00;1.73;;;8.10;99.90;;;;;;469824;253;27968;-71
2023/10/15 02:06:58;;;;;;;4.50;2.37;;;8.10;99.90;;;;;;469772;253;27553;-71
2023/10/15 02:08:59;;;;;;;5.77;2.03;;;8.30;99.90;;;;;;469976;253;28104;-72
2023/10/15 02:11:05;;;;;;;2.80;1.90;;;8.30;99.90;;;;;;469970;253;27887;-71
2023/10/15 02:13:04;;;;;;;8.80;2.80;;;8.40;99.90;;;;;;469908;253;27833;-70
2023/10/15 02:15:02;;;;;;;5.20;2.20;;;8.50;99.90;;;;;;469938;253;27962;-70
2023/10/15 02:17:06;;;;;;;2.17;1.80;;;8.50;99.90;;;;;;469974;253;27543;-71
2023/10/15 02:19:07;;;;;;;3.87;2.47;;;8.50;99.90;;;;;;469976;253;27964;-74
2023/10/15 02:21:06;;;;;;;3.73;2.00;;;8.60;99.90;;;;;;469970;253;27644;-71
2023/10/15 02:23:07;;;;;;;4.50;2.40;;;8.50;99.90;;;;;;469773;253;27914;-72
2023/10/15 02:25:08;;;;;;;6.80;2.30;;;8.50;99.90;;;;;;469982;252;27675;-72
2023/10/15 02:27:10;;;;;;;4.03;2.37;;;8.50;99.90;;;;;;470539;253;27995;-71
2023/10/15 02:31:30;;;;;;;2.70;1.73;;;8.30;99.90;;;;;;470679;250;28013;-71
2023/10/15 02:33:32;;;;;;;3.07;1.87;;;8.40;99.90;;;;;;470685;253;27658;-71
2023/10/15 02:35:39;;;;;;;3.33;2.00;;;8.40;99.90;;;;;;470674;253;28113;-72
2023/10/15 02:37:39;;;;;;;5.90;2.10;;;8.40;99.90;;;;;;470663;253;27967;-71
2023/10/15 02:39:50;;;;;;;5.63;2.20;;;8.50;99.90;;;;;;470651;253;27948;-71
2023/10/15 02:41:46;;;;;;;4.70;2.23;;;8.50;99.90;;;;;;469415;253;28026;-73
2023/10/15 02:43:56;;;;;;;4.53;1.90;;;8.50;99.90;;;;;;470648;253;27546;-71
2023/10/15 02:46:00;;;;;;;2.43;2.23;;;8.50;99.90;;;;;;470637;253;27596;-71
2023/10/15 02:48:10;;;;;;;2.60;2.03;;;8.50;99.90;;;;;;470698;253;27954;-71
2023/10/15 02:50:03;;;;;;;4.07;2.27;;;8.40;99.90;;;;;;470622;253;27820;-71
2023/10/15 02:52:10;;;;;;;6.50;2.70;;;8.40;99.90;;;;;;470707;253;27932;-71
2023/10/15 02:54:18;;;;;;;5.80;2.70;;;8.30;99.90;;;;;;470621;253;27790;-72
2023/10/15 02:56:12;;;;;;;5.00;2.13;;;8.30;99.90;;;;;;470263;253;28056;-71
2023/10/15 02:58:16;;;;;;;4.27;2.43;;;8.30;99.90;;;;;;470694;253;27954;-71
2023/10/15 03:02:17;;;;;;;6.83;2.03;;;8.30;99.90;;;;;;470688;253;27680;-71
2023/10/15 03:04:32;;;;;;;2.60;2.40;;;8.30;99.90;;;;;;470689;249;28054;-70
2023/10/15 03:06:19;;;;;;;3.17;1.87;;;8.30;99.90;;;;;;470566;253;27915;-71
2023/10/15 03:08:20;;;;;;;4.33;2.23;;;8.30;99.90;;;;;;470673;253;28072;-71
2023/10/15 03:10:24;;;;;;;3.50;2.20;;;8.30;99.90;;;;;;470678;253;27705;-72
2023/10/15 03:12:25;;;;;;;3.53;2.27;;;8.30;99.90;;;;;;470676;253;27798;-71
2023/10/15 03:14:26;;;;;;;5.77;2.20;;;8.20;99.90;;;;;;470706;252;27974;-71
2023/10/15 03:16:30;;;;;;;2.80;2.13;;;8.20;99.90;;;;;;470664;253;27797;-71
2023/10/15 03:18:34;;;;;;;2.97;1.77;;;8.10;99.90;;;;;;470631;253;28408;-72
2023/10/15 03:20:39;;;;;;;6.07;2.17;;;8.00;99.90;;;;;;470606;253;28869;-71
2023/10/15 03:22:31;;;;;;;8.27;2.40;;;8.00;99.90;;;;;;470581;253;28611;-71
2023/10/15 03:24:34;;;;;;;2.07;1.73;;;8.00;99.90;;;;;;470599;249;28559;-71
2023/10/15 03:26:34;;;;;;;4.60;2.40;;;7.90;99.90;;;;;;470668;253;28473;-71
2023/10/15 03:28:35;;;;;;;6.00;2.50;;;7.80;99.90;;;;;;470664;253;27988;-70
2023/10/15 03:30:44;;;;;;;3.93;2.20;;;7.70;99.90;;;;;;470669;253;27944;-70
2023/10/15 03:32:41;;;;;;;4.70;2.37;;;7.70;99.90;;;;;;470631;253;27941;-72
2023/10/15 03:34:59;;;;;;;5.10;2.33;;;7.60;99.90;;;;;;470659;253;28076;-71
2023/10/15 03:36:57;;;;;;;13.43;1.90;;;7.60;99.90;;;;;;470599;253;27904;-70
2023/10/15 03:38:54;;;;;;;5.70;1.97;;;7.50;99.90;;;;;;470628;252;27703;-71
2023/10/15 03:41:11;;;;;;;6.20;2.10;;;7.50;99.90;;;;;;470643;253;27752;-70
2023/10/15 03:43:01;;;;;;;4.97;2.17;;;7.40;99.90;;;;;;470556;253;28051;-71
2023/10/15 03:45:00;;;;;;;3.27;1.97;;;7.40;99.90;;;;;;470629;253;27892;-70
2023/10/15 03:47:04;;;;;;;5.53;2.30;;;7.40;99.90;;;;;;470668;253;28083;-71
2023/10/15 03:49:08;;;;;;;2.80;1.70;;;7.30;99.90;;;;;;470580;253;27958;-70
2023/10/15 03:51:15;;;;;;;3.77;2.60;;;7.30;99.90;;;;;;470381;253;28018;-71
2023/10/15 03:53:08;;;;;;;5.40;2.23;;;7.30;99.90;;;;;;470587;253;28060;-73
2023/10/15 03:55:09;;;;;;;5.40;2.37;;;7.40;99.90;;;;;;470693;253;27988;-71
2023/10/15 03:57:10;;;;;;;3.50;2.10;;;7.40;99.90;;;;;;470665;253;27832;-70
2023/10/15 03:59:11;;;;;;;3.07;2.20;;;7.40;99.90;;;;;;470665;253;27920;-72
2023/10/15 04:01:16;;;;;;;5.90;2.80;;;7.40;99.90;;;;;;470651;253;28049;-71
2023/10/15 04:03:28;;;;;;;2.47;1.77;;;7.40;99.90;;;;;;470618;253;27953;-72
2023/10/15 04:05:30;;;;;;;6.47;2.10;;;7.50;99.90;;;;;;470641;253;27906;-72
2023/10/15 04:07:25;;;;;;;3.63;1.87;;;7.40;99.90;;;;;;470609;253;27913;-71
2023/10/15 04:09:27;;;;;;;6.27;2.37;;;7.30;99.90;;;;;;470628;253;27703;-71
2023/10/15 04:11:49;;;;;;;6.40;2.37;;;7.40;99.90;;;;;;470691;249;28030;-70
2023/10/15 04:13:29;;;;;;;7.10;2.47;;;7.40;99.90;;;;;;467866;253;27952;-71
2023/10/15 04:15:30;;;;;;;2.67;1.60;;;7.40;99.90;;;;;;470692;253;27953;-72
2023/10/15 04:17:31;;;;;;;5.70;2.37;;;7.40;99.90;;;;;;470683;253;27914;-71
2023/10/15 04:19:35;;;;;;;4.60;2.23;;;7.40;99.90;;;;;;470696;253;28014;-71
2023/10/15 04:21:38;;;;;;;3.40;2.00;;;7.40;99.90;;;;;;470493;253;27929;-70
2023/10/15 04:23:36;;;;;;;3.73;2.33;;;7.30;99.90;;;;;;470635;253;27665;-71
2023/10/15 04:25:36;;;;;;;6.43;2.57;;;7.30;99.90;;;;;;470693;253;28348;-72
2023/10/15 04:27:38;;;;;;;4.40;2.10;;;7.30;99.90;;;;;;470673;253;28463;-71
2023/10/15 04:29:47;;;;;;;3.60;2.20;;;7.30;99.90;;;;;;470681;253;28691;-71
2023/10/15 04:31:41;;;;;;;3.40;2.40;;;7.30;99.90;;;;;;470611;253;28374;-71
2023/10/15 04:33:43;;;;;;;7.07;2.53;;;7.30;99.90;;;;;;470679;253;28344;-70
2023/10/15 04:35:43;;;;;;;6.27;2.70;;;7.30;99.90;;;;;;470658;253;28358;-71
2023/10/15 04:37:49;;;;;;;4.87;2.37;;;7.20;99.90;;;;;;470607;253;28011;-70
2023/10/15 04:39:58;;;;;;;3.90;2.20;;;7.20;99.90;;;;;;470208;253;28010;-72
2023/10/15 04:41:56;;;;;;;7.20;2.70;;;7.10;99.90;;;;;;470395;253;27941;-70
2023/10/15 04:43:57;;;;;;;2.80;2.30;;;7.10;99.90;;;;;;470662;253;27822;-72
2023/10/15 04:45:58;;;;;;;5.17;2.40;;;7.10;99.90;;;;;;470655;253;28153;-71
2023/10/15 04:47:59;;;;;;;4.00;2.07;;;7.10;99.90;;;;;;470665;253;28414;-71
2023/10/15 04:50:04;;;;;;;4.47;2.40;;;7.10;99.90;;;;;;470669;253;29109;-70
2023/10/15 04:52:13;;;;;;;5.40;2.57;;;7.10;99.90;;;;;;470481;253;28087;-70
2023/10/15 04:54:03;;;;;;;3.70;2.00;;;7.10;99.90;;;;;;470593;253;28493;-72
2023/10/15 04:56:04;;;;;;;3.50;2.00;;;7.00;99.90;;;;;;470670;253;28439;-70
2023/10/15 04:58:05;;;;;;;3.30;2.13;;;7.00;99.90;;;;;;470671;253;28520;-71
2023/10/15 05:00:07;;;;;;;8.00;3.10;;;6.90;99.90;;;;;;470688;253;27865;-72
2023/10/15 05:02:08;;;;;;;3.43;2.03;;;6.80;99.90;;;;;;470674;253;27874;-71
2023/10/15 05:04:09;;;;;;;3.57;2.50;;;6.80;99.90;;;;;;470692;248;27894;-71
2023/10/15 05:06:13;;;;;;;5.03;2.50;;;6.70;99.90;;;;;;470699;253;27908;-70
2023/10/15 05:08:17;;;;;;;7.80;3.30;;;6.70;99.90;;;;;;470696;253;28261;-71
2023/10/15 05:10:16;;;;;;;4.83;2.33;;;6.70;99.90;;;;;;470652;253;28431;-70
2023/10/15 05:12:20;;;;;;;6.20;2.73;;;6.70;99.90;;;;;;470648;253;28112;-72
2023/10/15 05:14:18;;;;;;;3.00;2.20;;;6.60;99.90;;;;;;470664;253;27785;-71
2023/10/15 05:16:20;;;;;;;3.40;2.10;;;6.60;99.90;;;;;;470680;253;28047;-71
2023/10/15 05:18:21;;;;;;;6.27;2.70;;;6.50;99.90;;;;;;470686;253;27924;-70
2023/10/15 05:20:22;;;;;;;5.73;2.50;;;6.50;99.90;;;;;;470677;253;27920;-71
2023/10/15 05:22:23;;;;;;;10.83;2.90;;;6.50;99.90;;;;;;470681;253;28073;-72
2023/10/15 05:24:24;;;;;;;6.63;2.30;;;6.50;99.90;;;;;;470674;253;27873;-72
2023/10/15 05:26:26;;;;;;;2.83;1.80;;;6.40;99.90;;;;;;470676;253;27832;-71
2023/10/15 05:28:29;;;;;;;6.37;2.87;;;6.40;99.90;;;;;;470674;253;28882;-72
2023/10/15 05:30:28;;;;;;;4.30;2.50;;;6.30;99.90;;;;;;470656;253;27916;-71
2023/10/15 05:32:29;;;;;;;3.20;2.23;;;6.30;99.90;;;;;;470667;253;27955;-71
2023/10/15 05:34:31;;;;;;;3.63;2.30;;;6.30;99.90;;;;;;470683;249;27945;-70
2023/10/15 05:36:32;;;;;;;5.60;2.20;;;6.40;99.90;;;;;;470680;253;27907;-71
2023/10/15 05:38:33;;;;;;;6.73;2.00;;;6.30;99.90;;;;;;470690;253;27665;-73
2023/10/15 05:40:35;;;;;;;3.17;2.23;;;6.30;99.90;;;;;;470698;253;28370;-71
2023/10/15 05:42:36;;;;;;;6.00;2.27;;;6.30;99.90;;;;;;472210;251;28346;-72
2023/10/15 05:44:37;;;;;;;2.80;2.10;;;6.20;99.90;;;;;;473383;251;29397;-71
2023/10/15 05:46:38;;;;;;;5.22;2.10;;;6.10;99.90;;;;;;473424;251;27476;-72
2023/10/15 05:48:39;;;;;;;4.90;2.40;;;6.10;99.90;;;;;;473444;251;27568;-72
2023/10/15 05:50:41;;;;;;;4.00;2.53;;;6.10;99.90;;;;;;473432;251;28786;-70
2023/10/15 05:52:42;;;;;;;3.10;2.10;;;6.10;99.90;;;;;;473445;251;28195;-70
2023/10/15 05:54:43;;;;;;;4.73;2.43;;;6.10;99.90;;;;;;473442;251;27482;-71
2023/10/15 05:56:45;;;;;;;4.30;1.83;;;6.10;99.90;;;;;;473399;251;28797;-70
2023/10/15 05:58:46;;;;;;;3.43;2.20;;;6.10;99.90;;;;;;473406;251;27952;-72
2023/10/15 06:00:47;;;;;;;4.10;2.33;;;6.10;99.90;;;;;;473424;251;27949;-70
2023/10/15 06:02:48;;;;;;;4.30;2.00;;;6.20;99.90;;;;;;473412;251;29500;-71
2023/10/15 06:04:49;;;;;;;6.43;2.78;;;6.10;99.90;;;;;;473431;251;28575;-73
2023/10/15 06:06:51;;;;;;;3.80;2.10;;;6.10;99.90;;;;;;473440;251;27995;-71
2023/10/15 06:08:53;;;;;;;6.30;2.43;;;6.10;99.90;;;;;;473484;251;28404;-71
2023/10/15 06:10:53;;;;;;;4.80;2.03;;;6.10;99.90;;;;;;473450;251;28904;-71
2023/10/15 06:12:54;;;;;;;25.20;12.30;;;6.00;99.90;;;;;;473456;251;28010;-71
2023/10/15 06:14:56;;;;;;;10.25;5.43;;;6.00;99.90;;;;;;473422;251;27724;-71
2023/10/15 06:16:57;;;;;;;5.45;3.10;;;6.00;99.90;;;;;;473247;251;27567;-71
2023/10/15 06:18:58;;;;;;;6.62;3.15;;;6.10;99.90;;;;;;473428;251;27467;-71
2023/10/15 06:21:00;;;;;;;9.40;3.73;;;6.10;99.90;;;;;;472691;251;36783;-71
2023/10/15 06:23:04;;;;;;;5.55;3.20;;;6.10;99.90;;;;;;473430;251;28834;-71
2023/10/15 06:25:04;;;;;;;14.40;10.67;;;6.10;99.90;;;;;;473454;251;27900;-72
2023/10/15 06:27:04;;;;;;;10.95;7.25;;;6.10;99.90;;;;;;458334;251;27791;-70
2023/10/15 06:29:05;;;;;;;7.63;5.03;;;6.10;99.90;;;;;;455178;260;27475;-70
2023/10/15 06:31:09;;;;;;;3.60;3.20;;;6.10;99.90;;;;;;465007;254;27917;-72
2023/10/15 06:33:07;;;;;;;6.53;3.83;;;6.20;99.90;;;;;;465024;255;27547;-71
2023/10/15 06:35:08;;;;;;;6.73;3.60;;;6.20;99.90;;;;;;465046;255;27584;-72
2023/10/15 06:37:10;;;;;;;5.03;3.27;;;6.20;99.90;;;;;;465017;255;28233;-71
2023/10/15 06:39:11;;;;;;;4.10;3.10;;;6.10;99.90;;;;;;464999;255;29357;-71
2023/10/15 06:41:12;;;;;;;6.47;2.80;;;6.10;99.90;;;;;;465028;255;29242;-73
2023/10/15 06:43:15;;;;;;;5.07;2.70;;;6.20;99.90;;;;;;465020;255;28737;-70
2023/10/15 06:45:19;;;;;;;6.27;3.43;;;6.20;99.90;;;;;;464912;256;27959;-73
2023/10/15 06:47:19;;;;;;;4.67;2.63;;;6.20;99.90;;;;;;465004;256;28436;-72
2023/10/15 06:49:20;;;;;;;9.40;2.83;;;6.20;99.90;;;;;;465060;255;29264;-70
2023/10/15 06:51:21;;;;;;;3.60;2.60;;;6.20;99.90;;;;;;465066;255;29304;-71
2023/10/15 06:53:23;;;;;;;6.32;2.53;;;6.30;99.90;;;;;;465075;255;28336;-71
2023/10/15 06:55:24;;;;;;;4.93;2.63;;;6.20;99.90;;;;;;465073;255;27495;-72
2023/10/15 06:57:25;;;;;;;8.10;5.30;;;6.30;99.90;;;;;;465054;255;27707;-72
2023/10/15 06:59:27;;;;;;;9.10;4.60;;;6.30;99.90;;;;;;465071;255;27974;-71
2023/10/15 07:01:30;;;;;;;9.47;4.73;;;6.40;99.90;;;;;;464917;256;28058;-71
2023/10/15 07:03:29;;;;;;;7.07;4.17;;;6.40;99.90;;;;;;465051;255;27985;-71
2023/10/15 07:05:30;;;;;;;5.60;4.00;;;6.50;99.90;;;;;;465051;255;27975;-71
2023/10/15 07:07:35;;;;;;;6.40;3.40;;;6.50;99.90;;;;;;465060;255;27855;-71
2023/10/15 07:09:33;;;;;;;7.70;3.30;;;6.50;99.90;;;;;;464969;255;27976;-72
2023/10/15 07:11:35;;;;;;;5.80;3.50;;;6.50;99.90;;;;;;465111;255;27955;-71
2023/10/15 07:13:35;;;;;;;4.70;3.20;;;6.60;99.90;;;;;;465012;255;27601;-71
2023/10/15 07:15:40;;;;;;;8.63;2.90;;;6.60;99.90;;;;;;465056;255;27760;-70
2023/10/15 07:17:38;;;;;;;5.50;3.07;;;6.60;99.90;;;;;;464978;255;27850;-71
2023/10/15 07:19:39;;;;;;;7.40;2.93;;;6.60;99.90;;;;;;465084;255;27790;-71
2023/10/15 07:21:41;;;;;;;5.57;3.10;;;6.70;99.90;;;;;;465052;255;28178;-71
2023/10/15 07:23:41;;;;;;;8.83;3.13;;;6.70;99.90;;;;;;465007;255;28514;-71
2023/10/15 07:25:42;;;;;;;6.07;2.87;;;6.70;99.90;;;;;;465070;255;29345;-70
2023/10/15 07:27:45;;;;;;;3.63;2.73;;;6.80;99.90;;;;;;465066;255;28137;-70
2023/10/15 07:29:45;;;;;;;3.47;2.90;;;6.80;99.90;;;;;;464926;255;28100;-71
2023/10/15 07:31:46;;;;;;;7.60;3.10;;;6.80;99.90;;;;;;465069;255;28403;-71
2023/10/15 07:33:47;;;;;;;8.63;3.20;;;6.90;99.90;;;;;;465096;255;27967;-71
2023/10/15 07:35:49;;;;;;;4.47;3.03;;;6.90;99.90;;;;;;465098;255;28130;-71
2023/10/15 07:37:50;;;;;;;6.53;3.40;;;6.90;99.90;;;;;;465101;255;28112;-72
2023/10/15 07:39:51;;;;;;;9.43;3.20;;;7.00;99.90;;;;;;466335;250;28116;-70
2023/10/15 07:41:52;;;;;;;6.63;2.80;;;7.00;99.90;;;;;;458675;259;27989;-71
2023/10/15 07:43:54;;;;;;;5.03;3.00;;;7.10;99.90;;;;;;458662;259;28019;-72
2023/10/15 07:45:55;;;;;;;4.50;3.03;;;7.10;99.90;;;;;;467106;254;27924;-71
2023/10/15 07:47:59;;;;;;;10.17;3.53;;;7.20;99.90;;;;;;458656;259;27897;-71
2023/10/15 07:49:59;;;;;;;5.53;2.87;;;7.20;99.90;;;;;;450727;264;28129;-72
2023/10/15 07:51:59;;;;;;;3.57;3.00;;;7.30;99.90;;;;;;450834;264;28211;-71
2023/10/15 07:54:02;;;;;;;5.60;2.73;;;7.30;99.90;;;;;;458645;259;27818;-70
2023/10/15 07:56:01;;;;;;;8.90;3.30;;;7.30;99.90;;;;;;450847;264;28125;-72
2023/10/15 07:58:02;;;;;;;4.80;2.63;;;7.40;99.90;;;;;;458652;259;28049;-71
2023/10/15 08:00:05;;;;;;;4.60;2.73;;;7.40;99.90;;;;;;458658;259;28110;-71
2023/10/15 08:02:07;;;;;;;4.70;3.03;;;7.50;99.90;;;;;;450735;260;29198;-71
2023/10/15 08:04:06;;;;;;;6.47;3.17;;;7.50;99.90;;;;;;450722;264;28372;-71
2023/10/15 08:06:07;;;;;;;3.80;2.53;;;7.50;99.90;;;;;;451913;258;28641;-71
2023/10/15 08:08:09;;;;;;;8.80;3.30;;;7.50;99.90;;;;;;463144;257;28145;-71
2023/10/15 08:10:10;;;;;;;5.33;2.87;;;7.60;99.90;;;;;;468241;254;28967;-71
2023/10/15 08:12:11;;;;;;;5.37;2.60;;;7.60;99.90;;;;;;461095;254;28188;-71
2023/10/15 08:14:12;;;;;;;2.80;2.13;;;7.70;99.90;;;;;;457219;260;27938;-71
2023/10/15 08:16:15;;;;;;;8.10;2.87;;;7.70;99.90;;;;;;458011;255;27593;-71
2023/10/15 08:18:15;;;;;;;4.77;2.93;;;7.80;99.90;;;;;;454145;261;28054;-71
2023/10/15 08:20:16;;;;;;;9.20;3.20;;;7.80;99.90;;;;;;450392;264;27882;-71
2023/10/15 08:22:17;;;;;;;6.10;2.60;;;7.90;99.90;;;;;;465726;255;27832;-71
2023/10/15 08:24:19;;;;;;;6.10;2.30;;;8.00;99.90;;;;;;454235;258;27683;-71
2023/10/15 08:26:20;;;;;;;15.97;2.87;;;8.00;99.90;;;;;;449603;264;27901;-71
2023/10/15 08:28:21;;;;;;;9.60;2.67;;;8.00;99.90;;;;;;465410;255;27894;-71
2023/10/15 08:30:22;;;;;;;7.23;2.63;;;8.00;99.90;;;;;;453850;258;27976;-71
2023/10/15 08:32:26;;;;;;;5.23;2.27;;;8.00;99.90;;;;;;449967;264;27727;-71
2023/10/15 08:34:25;;;;;;;3.27;2.13;;;8.10;99.90;;;;;;465711;255;28050;-71
2023/10/15 08:36:26;;;;;;;3.83;2.10;;;8.10;99.90;;;;;;454228;258;27703;-71
2023/10/15 08:38:27;;;;;;;5.97;2.50;;;8.20;99.90;;;;;;457765;259;28173;-71
2023/10/15 08:40:30;;;;;;;4.73;2.50;;;8.20;99.90;;;;;;465548;254;28449;-71
2023/10/15 08:42:30;;;;;;;5.40;2.47;;;8.30;99.90;;;;;;453782;259;28077;-73
2023/10/15 08:44:33;;;;;;;6.03;2.10;;;8.30;99.90;;;;;;449636;264;28393;-71
2023/10/15 08:46:32;;;;;;;5.03;2.20;;;8.40;99.90;;;;;;465324;255;28570;-72
2023/10/15 08:48:35;;;;;;;5.53;1.93;;;8.50;99.90;;;;;;453866;258;28587;-73
2023/10/15 08:50:36;;;;;;;6.47;2.23;;;8.60;99.90;;;;;;450057;259;28090;-72
2023/10/15 08:52:37;;;;;;;10.83;2.67;;;8.90;99.90;;;;;;465712;255;27683;-71
2023/10/15 08:54:38;;;;;;;7.00;1.97;;;9.10;99.90;;;;;;454074;259;28061;-71
2023/10/15 08:56:39;;;;;;;4.77;2.77;;;9.20;99.90;;;;;;457670;259;28012;-71
2023/10/15 08:58:40;;;;;;;5.00;1.80;;;9.10;99.90;;;;;;465720;254;27835;-73
2023/10/15 09:00:43;;;;;;;4.27;2.10;;;9.00;99.90;;;;;;454234;258;28194;-71
2023/10/15 09:02:42;;;;;;;3.63;2.03;;;9.10;99.90;;;;;;450462;259;28131;-72
2023/10/15 09:04:45;;;;;;;4.77;1.70;;;9.00;99.90;;;;;;465710;255;27671;-71
2023/10/15 09:06:47;;;;;;;6.63;2.00;;;8.80;99.90;;;;;;454242;254;28009;-71
2023/10/15 09:08:46;;;;;;;2.73;1.70;;;8.80;99.90;;;;;;450524;259;27886;-72
2023/10/15 09:10:48;;;;;;;6.83;1.87;;;8.80;99.90;;;;;;465751;255;28039;-71
2023/10/15 09:12:49;;;;;;;5.40;1.63;;;8.90;99.90;;;;;;454266;258;28207;-72
2023/10/15 09:14:50;;;;;;;3.77;1.70;;;9.10;99.90;;;;;;450054;264;27949;-71
2023/10/15 09:16:51;;;;;;;4.73;1.90;;;9.10;99.90;;;;;;465722;255;27721;-71
2023/10/15 09:18:52;;;;;;;3.87;1.90;;;9.10;99.90;;;;;;450027;262;28503;-72
2023/10/15 09:20:58;;;;;;;4.00;1.53;;;9.20;99.90;;;;;;465715;255;28384;-71
2023/10/15 09:22:57;;;;;;;5.37;1.80;;;9.20;99.90;;;;;;454240;258;28673;-71
2023/10/15 09:24:56;;;;;;;4.23;2.00;;;9.10;99.90;;;;;;450438;259;30419;-72
2023/10/15 09:26:57;;;;;;;2.73;1.67;;;9.20;99.90;;;;;;465735;255;28273;-72
2023/10/15 09:28:59;;;;;;;4.80;1.70;;;9.20;99.90;;;;;;450009;264;27996;-72
2023/10/15 09:31:00;;;;;;;7.53;2.23;;;9.30;99.90;;;;;;465736;255;27980;-72
2023/10/15 09:33:01;;;;;;;9.60;2.17;;;9.30;99.90;;;;;;454232;254;28135;-72
2023/10/15 09:35:02;;;;;;;2.60;1.50;;;9.30;99.90;;;;;;450007;264;28016;-73
2023/10/15 09:37:07;;;;;;;7.40;2.00;;;9.40;99.90;;;;;;465741;255;27693;-71
2023/10/15 09:39:12;;;;;;;4.73;1.90;;;9.60;99.90;;;;;;453876;261;28208;-74
2023/10/15 09:41:06;;;;;;;4.37;2.50;;;9.80;99.90;;;;;;450725;259;27997;-72
2023/10/15 09:43:08;;;;;;;4.87;1.57;;;9.90;99.90;;;;;;465639;250;27959;-72
2023/10/15 09:45:09;;;;;;;4.60;1.70;;;10.00;99.90;;;;;;454207;258;28161;-74
2023/10/15 09:47:10;;;;;;;3.23;1.60;;;10.10;99.90;;;;;;449967;264;28170;-73
2023/10/15 09:49:12;;;;;;;9.70;2.20;;;9.90;99.90;;;;;;465680;255;28091;-72
2023/10/15 09:51:12;;;;;;;5.03;1.90;;;10.00;99.90;;;;;;454218;258;28191;-72
2023/10/15 09:53:16;;;;;;;8.83;1.90;;;10.10;99.90;;;;;;450000;264;28373;-72
2023/10/15 09:55:15;;;;;;;4.10;1.67;;;9.90;99.90;;;;;;465667;255;28689;-73
2023/10/15 09:57:16;;;;;;;4.00;2.37;;;9.90;99.90;;;;;;449980;264;28649;-72
2023/10/15 09:59:19;;;;;;;2.20;1.50;;;9.70;99.90;;;;;;465661;255;28840;-72
2023/10/15 10:01:28;;;;;;;5.23;1.80;;;9.70;99.90;;;;;;454244;258;29434;-72
2023/10/15 10:03:26;;;;;;;5.23;2.50;;;9.80;99.90;;;;;;450379;260;28755;-72
2023/10/15 10:05:44;;;;;;;6.00;1.40;;;9.70;99.90;;;;;;465705;255;28643;-73
2023/10/15 10:07:28;;;;;;;5.90;1.60;;;9.60;99.90;;;;;;454364;258;28673;-72
2023/10/15 10:09:29;;;;;;;3.83;1.40;;;9.60;99.90;;;;;;450405;264;28102;-72
2023/10/15 10:11:31;;;;;;;3.17;1.63;;;9.60;99.90;;;;;;465732;254;28027;-72
2023/10/15 10:13:32;;;;;;;7.60;1.77;;;9.50;99.90;;;;;;450003;264;28023;-71
2023/10/15 10:15:33;;;;;;;4.00;1.90;;;9.50;99.90;;;;;;465728;255;27970;-74
2023/10/15 10:17:34;;;;;;;3.57;1.70;;;9.60;99.90;;;;;;454227;259;28138;-72
2023/10/15 10:19:36;;;;;;;2.50;1.30;;;9.60;99.90;;;;;;450063;264;28102;-72
2023/10/15 10:21:37;;;;;;;5.43;1.43;;;9.60;99.90;;;;;;465694;255;27942;-72
2023/10/15 10:23:38;;;;;;;3.50;1.30;;;9.60;99.90;;;;;;454230;258;28164;-72
2023/10/15 10:25:44;;;;;;;3.70;2.07;;;9.60;99.90;;;;;;450044;264;28146;-73
2023/10/15 10:27:45;;;;;;;2.40;1.27;;;9.60;99.90;;;;;;465740;255;27929;-72
2023/10/15 10:29:45;;;;;;;5.17;1.57;;;9.70;99.90;;;;;;454287;258;28505;-72
2023/10/15 10:31:47;;;;;;;3.33;1.00;;;9.60;99.90;;;;;;450082;264;28702;-72
2023/10/15 10:33:49;;;;;;;6.27;1.60;;;9.60;99.90;;;;;;465798;255;28568;-73
2023/10/15 10:35:49;;;;;;;4.03;1.50;;;9.70;99.90;;;;;;454273;258;28810;-72
2023/10/15 10:37:50;;;;;;;6.07;1.40;;;9.80;99.90;;;;;;450032;264;28738;-72
2023/10/15 10:39:51;;;;;;;2.80;1.50;;;10.10;99.90;;;;;;465790;255;28382;-72
2023/10/15 10:41:59;;;;;;;2.90;1.30;;;10.00;99.90;;;;;;454320;258;28195;-72
2023/10/15 10:43:58;;;;;;;2.07;1.33;;;10.00;99.90;;;;;;450016;264;28349;-72
2023/10/15 10:45:58;;;;;;;1.93;1.40;;;10.10;99.90;;;;;;465741;255;28297;-73